sensor_id;sensor_type;location;lat;lon;timestamp;P1;durP1;ratioP1;P2;durP2;ratioP2
14470;SDS011;7321;50.802;4.336;2022-12-18T00:01:15;26.87;;;18.23;;
14470;SDS011;7321;50.802;4.336;2022-12-18T00:03:41;28.40;;;19.67;;
14470;SDS011;7321;50.802;4.336;2022-12-18T00:06:06;33.33;;;22.57;;
14470;SDS011;7321;50.802;4.336;2022-12-18T00:08:33;32.90;;;19.53;;
14470;SDS011;7321;50.802;4.336;2022-12-18T00:11:06;25.60;;;18.17;;
14470;SDS011;7321;50.802;4.336;2022-12-18T00:13:33;26.93;;;18.30;;
14470;SDS011;7321;50.802;4.336;2022-12-18T00:16:03;27.03;;;19.70;;
14470;SDS011;7321;50.802;4.336;2022-12-18T00:18:31;25.27;;;18.37;;
14470;SDS011;7321;50.802;4.336;2022-12-18T00:20:58;25.90;;;18.27;;
14470;SDS011;7321;50.802;4.336;2022-12-18T00:23:25;26.13;;;18.33;;
14470;SDS011;7321;50.802;4.336;2022-12-18T00:25:51;27.77;;;18.70;;
14470;SDS011;7321;50.802;4.336;2022-12-18T00:28:17;25.67;;;18.53;;
14470;SDS011;7321;50.802;4.336;2022-12-18T00:30:42;27.40;;;19.33;;
14470;SDS011;7321;50.802;4.336;2022-12-18T00:33:08;27.70;;;18.80;;
14470;SDS011;7321;50.802;4.336;2022-12-18T00:35:34;31.47;;;20.53;;
14470;SDS011;7321;50.802;4.336;2022-12-18T00:38:00;27.70;;;20.13;;
14470;SDS011;7321;50.802;4.336;2022-12-18T00:40:25;29.83;;;21.00;;
14470;SDS011;7321;50.802;4.336;2022-12-18T00:42:51;27.97;;;19.77;;
14470;SDS011;7321;50.802;4.336;2022-12-18T00:45:27;28.43;;;19.50;;
14470;SDS011;7321;50.802;4.336;2022-12-18T00:47:54;27.87;;;18.67;;
14470;SDS011;7321;50.802;4.336;2022-12-18T00:50:21;30.00;;;20.20;;
14470;SDS011;7321;50.802;4.336;2022-12-18T00:52:48;24.33;;;18.80;;
14470;SDS011;7321;50.802;4.336;2022-12-18T00:55:14;30.10;;;19.03;;
14470;SDS011;7321;50.802;4.336;2022-12-18T00:57:40;25.63;;;18.07;;
14470;SDS011;7321;50.802;4.336;2022-12-18T01:00:07;24.87;;;17.63;;
14470;SDS011;7321;50.802;4.336;2022-12-18T01:02:40;26.90;;;17.60;;
14470;SDS011;7321;50.802;4.336;2022-12-18T01:05:06;25.53;;;17.30;;
14470;SDS011;7321;50.802;4.336;2022-12-18T01:07:32;24.70;;;16.77;;
14470;SDS011;7321;50.802;4.336;2022-12-18T01:09:58;25.83;;;17.00;;
14470;SDS011;7321;50.802;4.336;2022-12-18T01:12:24;24.37;;;16.67;;
14470;SDS011;7321;50.802;4.336;2022-12-18T01:14:50;21.57;;;15.73;;
14470;SDS011;7321;50.802;4.336;2022-12-18T01:17:15;22.30;;;15.97;;
14470;SDS011;7321;50.802;4.336;2022-12-18T01:19:41;22.30;;;15.80;;
14470;SDS011;7321;50.802;4.336;2022-12-18T01:22:07;21.87;;;16.13;;
14470;SDS011;7321;50.802;4.336;2022-12-18T01:24:33;19.43;;;14.00;;
14470;SDS011;7321;50.802;4.336;2022-12-18T01:26:58;18.73;;;12.73;;
14470;SDS011;7321;50.802;4.336;2022-12-18T01:29:24;20.00;;;13.93;;
14470;SDS011;7321;50.802;4.336;2022-12-18T01:31:50;20.30;;;13.57;;
14470;SDS011;7321;50.802;4.336;2022-12-18T01:34:16;15.90;;;12.47;;
14470;SDS011;7321;50.802;4.336;2022-12-18T01:36:42;18.23;;;13.43;;
14470;SDS011;7321;50.802;4.336;2022-12-18T01:39:11;17.80;;;14.20;;
14470;SDS011;7321;50.802;4.336;2022-12-18T01:41:38;16.17;;;12.67;;
14470;SDS011;7321;50.802;4.336;2022-12-18T01:47:20;17.00;;;11.90;;
14470;SDS011;7321;50.802;4.336;2022-12-18T01:49:47;17.07;;;11.97;;
14470;SDS011;7321;50.802;4.336;2022-12-18T01:52:13;18.43;;;12.20;;
14470;SDS011;7321;50.802;4.336;2022-12-18T01:54:39;14.40;;;11.20;;
14470;SDS011;7321;50.802;4.336;2022-12-18T01:57:05;15.33;;;11.43;;
14470;SDS011;7321;50.802;4.336;2022-12-18T01:59:31;16.03;;;10.83;;
14470;SDS011;7321;50.802;4.336;2022-12-18T02:01:59;15.73;;;10.67;;
14470;SDS011;7321;50.802;4.336;2022-12-18T02:04:26;18.17;;;11.27;;
14470;SDS011;7321;50.802;4.336;2022-12-18T02:09:52;14.73;;;10.80;;
14470;SDS011;7321;50.802;4.336;2022-12-18T02:12:21;14.80;;;10.30;;
14470;SDS011;7321;50.802;4.336;2022-12-18T02:15:00;15.33;;;10.03;;
14470;SDS011;7321;50.802;4.336;2022-12-18T02:17:56;14.73;;;9.70;;
14470;SDS011;7321;50.802;4.336;2022-12-18T02:20:33;14.33;;;10.10;;
14470;SDS011;7321;50.802;4.336;2022-12-18T02:23:17;15.83;;;10.57;;
14470;SDS011;7321;50.802;4.336;2022-12-18T02:29:08;13.30;;;9.13;;
14470;SDS011;7321;50.802;4.336;2022-12-18T02:31:40;14.57;;;9.70;;
14470;SDS011;7321;50.802;4.336;2022-12-18T02:34:16;14.27;;;9.97;;
14470;SDS011;7321;50.802;4.336;2022-12-18T02:36:43;13.33;;;9.27;;
14470;SDS011;7321;50.802;4.336;2022-12-18T02:39:11;16.43;;;10.73;;
14470;SDS011;7321;50.802;4.336;2022-12-18T02:41:38;13.13;;;10.00;;
14470;SDS011;7321;50.802;4.336;2022-12-18T02:44:09;13.03;;;8.97;;
14470;SDS011;7321;50.802;4.336;2022-12-18T02:51:56;15.53;;;10.13;;
14470;SDS011;7321;50.802;4.336;2022-12-18T02:57:37;17.70;;;11.77;;
14470;SDS011;7321;50.802;4.336;2022-12-18T03:03:10;17.93;;;11.83;;
14470;SDS011;7321;50.802;4.336;2022-12-18T03:05:53;15.83;;;10.70;;
14470;SDS011;7321;50.802;4.336;2022-12-18T03:08:26;15.90;;;10.80;;
14470;SDS011;7321;50.802;4.336;2022-12-18T03:11:02;16.20;;;11.60;;
14470;SDS011;7321;50.802;4.336;2022-12-18T03:13:37;16.13;;;10.97;;
14470;SDS011;7321;50.802;4.336;2022-12-18T03:16:15;17.07;;;11.60;;
14470;SDS011;7321;50.802;4.336;2022-12-18T03:18:48;14.60;;;10.93;;
14470;SDS011;7321;50.802;4.336;2022-12-18T03:21:27;17.07;;;11.40;;
14470;SDS011;7321;50.802;4.336;2022-12-18T03:23:57;16.97;;;10.93;;
14470;SDS011;7321;50.802;4.336;2022-12-18T03:26:24;17.97;;;12.73;;
14470;SDS011;7321;50.802;4.336;2022-12-18T03:31:53;18.50;;;12.00;;
14470;SDS011;7321;50.802;4.336;2022-12-18T03:34:32;20.50;;;12.03;;
14470;SDS011;7321;50.802;4.336;2022-12-18T03:37:01;17.70;;;11.60;;
14470;SDS011;7321;50.802;4.336;2022-12-18T03:39:26;16.63;;;11.17;;
14470;SDS011;7321;50.802;4.336;2022-12-18T03:41:55;16.03;;;10.43;;
14470;SDS011;7321;50.802;4.336;2022-12-18T03:47:14;18.80;;;11.93;;
14470;SDS011;7321;50.802;4.336;2022-12-18T03:52:35;18.43;;;11.33;;
14470;SDS011;7321;50.802;4.336;2022-12-18T03:55:05;18.57;;;12.03;;
14470;SDS011;7321;50.802;4.336;2022-12-18T03:57:36;17.40;;;11.00;;
14470;SDS011;7321;50.802;4.336;2022-12-18T04:00:06;17.63;;;11.27;;
14470;SDS011;7321;50.802;4.336;2022-12-18T04:02:37;21.13;;;12.60;;
14470;SDS011;7321;50.802;4.336;2022-12-18T04:05:08;19.30;;;12.07;;
14470;SDS011;7321;50.802;4.336;2022-12-18T04:07:37;20.10;;;12.07;;
14470;SDS011;7321;50.802;4.336;2022-12-18T04:10:05;20.80;;;12.57;;
14470;SDS011;7321;50.802;4.336;2022-12-18T04:12:40;21.47;;;12.73;;
14470;SDS011;7321;50.802;4.336;2022-12-18T04:15:10;17.07;;;11.27;;
14470;SDS011;7321;50.802;4.336;2022-12-18T04:17:42;15.73;;;10.80;;
14470;SDS011;7321;50.802;4.336;2022-12-18T04:20:13;17.67;;;10.97;;
14470;SDS011;7321;50.802;4.336;2022-12-18T04:22:46;16.63;;;10.07;;
14470;SDS011;7321;50.802;4.336;2022-12-18T04:25:17;14.20;;;9.90;;
14470;SDS011;7321;50.802;4.336;2022-12-18T04:27:43;12.63;;;9.53;;
14470;SDS011;7321;50.802;4.336;2022-12-18T04:30:10;13.60;;;10.43;;
14470;SDS011;7321;50.802;4.336;2022-12-18T04:32:39;14.80;;;10.50;;
14470;SDS011;7321;50.802;4.336;2022-12-18T04:35:05;14.97;;;10.07;;
14470;SDS011;7321;50.802;4.336;2022-12-18T04:37:35;14.70;;;10.10;;
14470;SDS011;7321;50.802;4.336;2022-12-18T04:40:01;15.87;;;10.00;;
14470;SDS011;7321;50.802;4.336;2022-12-18T04:42:27;15.77;;;9.53;;
14470;SDS011;7321;50.802;4.336;2022-12-18T04:44:53;13.20;;;9.53;;
14470;SDS011;7321;50.802;4.336;2022-12-18T04:47:19;15.83;;;10.00;;
14470;SDS011;7321;50.802;4.336;2022-12-18T04:49:45;16.33;;;10.13;;
14470;SDS011;7321;50.802;4.336;2022-12-18T04:52:11;14.57;;;9.60;;
14470;SDS011;7321;50.802;4.336;2022-12-18T04:54:37;15.77;;;10.10;;
14470;SDS011;7321;50.802;4.336;2022-12-18T04:57:03;15.60;;;10.20;;
14470;SDS011;7321;50.802;4.336;2022-12-18T04:59:28;15.47;;;10.53;;
14470;SDS011;7321;50.802;4.336;2022-12-18T05:01:54;14.37;;;9.40;;
14470;SDS011;7321;50.802;4.336;2022-12-18T05:04:20;16.17;;;9.60;;
14470;SDS011;7321;50.802;4.336;2022-12-18T05:06:46;13.83;;;9.83;;
14470;SDS011;7321;50.802;4.336;2022-12-18T05:09:11;14.57;;;9.73;;
14470;SDS011;7321;50.802;4.336;2022-12-18T05:11:37;16.13;;;9.80;;
14470;SDS011;7321;50.802;4.336;2022-12-18T05:14:03;12.83;;;9.47;;
14470;SDS011;7321;50.802;4.336;2022-12-18T05:16:29;14.70;;;9.33;;
14470;SDS011;7321;50.802;4.336;2022-12-18T05:18:54;15.33;;;9.73;;
14470;SDS011;7321;50.802;4.336;2022-12-18T05:21:20;12.93;;;9.07;;
14470;SDS011;7321;50.802;4.336;2022-12-18T05:23:46;16.97;;;9.97;;
14470;SDS011;7321;50.802;4.336;2022-12-18T05:26:14;15.43;;;9.27;;
14470;SDS011;7321;50.802;4.336;2022-12-18T05:28:42;14.53;;;10.03;;
14470;SDS011;7321;50.802;4.336;2022-12-18T05:31:09;11.67;;;8.80;;
14470;SDS011;7321;50.802;4.336;2022-12-18T05:33:35;12.30;;;8.80;;
14470;SDS011;7321;50.802;4.336;2022-12-18T05:36:01;14.17;;;8.70;;
14470;SDS011;7321;50.802;4.336;2022-12-18T05:38:29;10.67;;;8.00;;
14470;SDS011;7321;50.802;4.336;2022-12-18T05:40:56;13.70;;;8.50;;
14470;SDS011;7321;50.802;4.336;2022-12-18T05:43:23;10.87;;;7.70;;
14470;SDS011;7321;50.802;4.336;2022-12-18T05:45:50;13.00;;;8.00;;
14470;SDS011;7321;50.802;4.336;2022-12-18T05:48:17;12.97;;;8.33;;
14470;SDS011;7321;50.802;4.336;2022-12-18T05:50:45;10.57;;;7.63;;
14470;SDS011;7321;50.802;4.336;2022-12-18T05:53:12;12.17;;;8.53;;
14470;SDS011;7321;50.802;4.336;2022-12-18T05:55:43;11.20;;;7.80;;
14470;SDS011;7321;50.802;4.336;2022-12-18T05:58:10;12.17;;;8.43;;
14470;SDS011;7321;50.802;4.336;2022-12-18T06:00:37;13.40;;;8.57;;
14470;SDS011;7321;50.802;4.336;2022-12-18T06:03:05;11.27;;;8.00;;
14470;SDS011;7321;50.802;4.336;2022-12-18T06:05:39;13.27;;;8.80;;
14470;SDS011;7321;50.802;4.336;2022-12-18T06:08:09;13.77;;;8.80;;
14470;SDS011;7321;50.802;4.336;2022-12-18T06:10:37;11.93;;;8.03;;
14470;SDS011;7321;50.802;4.336;2022-12-18T06:13:03;12.83;;;8.50;;
14470;SDS011;7321;50.802;4.336;2022-12-18T06:15:29;13.90;;;9.00;;
14470;SDS011;7321;50.802;4.336;2022-12-18T06:17:55;13.07;;;8.40;;
14470;SDS011;7321;50.802;4.336;2022-12-18T06:20:21;12.10;;;8.60;;
14470;SDS011;7321;50.802;4.336;2022-12-18T06:22:47;12.20;;;9.03;;
14470;SDS011;7321;50.802;4.336;2022-12-18T06:25:13;12.00;;;8.17;;
14470;SDS011;7321;50.802;4.336;2022-12-18T06:27:39;11.90;;;8.90;;
14470;SDS011;7321;50.802;4.336;2022-12-18T06:30:05;11.83;;;8.73;;
14470;SDS011;7321;50.802;4.336;2022-12-18T06:32:31;13.37;;;7.97;;
14470;SDS011;7321;50.802;4.336;2022-12-18T06:34:57;12.33;;;8.67;;
14470;SDS011;7321;50.802;4.336;2022-12-18T06:37:23;11.97;;;8.60;;
14470;SDS011;7321;50.802;4.336;2022-12-18T06:39:51;12.57;;;8.70;;
14470;SDS011;7321;50.802;4.336;2022-12-18T06:42:17;14.57;;;8.53;;
14470;SDS011;7321;50.802;4.336;2022-12-18T06:44:43;12.00;;;8.93;;
14470;SDS011;7321;50.802;4.336;2022-12-18T06:47:09;11.97;;;8.37;;
14470;SDS011;7321;50.802;4.336;2022-12-18T06:49:35;10.90;;;8.37;;
14470;SDS011;7321;50.802;4.336;2022-12-18T06:52:01;11.47;;;8.30;;
14470;SDS011;7321;50.802;4.336;2022-12-18T06:54:27;12.10;;;7.90;;
14470;SDS011;7321;50.802;4.336;2022-12-18T06:56:52;10.57;;;7.60;;
14470;SDS011;7321;50.802;4.336;2022-12-18T06:59:18;11.60;;;8.17;;
14470;SDS011;7321;50.802;4.336;2022-12-18T07:01:44;11.87;;;7.80;;
14470;SDS011;7321;50.802;4.336;2022-12-18T07:04:10;11.13;;;7.87;;
14470;SDS011;7321;50.802;4.336;2022-12-18T07:06:36;12.17;;;8.13;;
14470;SDS011;7321;50.802;4.336;2022-12-18T07:09:01;11.53;;;8.00;;
14470;SDS011;7321;50.802;4.336;2022-12-18T07:11:27;11.13;;;8.53;;
14470;SDS011;7321;50.802;4.336;2022-12-18T07:13:53;11.97;;;7.87;;
14470;SDS011;7321;50.802;4.336;2022-12-18T07:16:19;12.10;;;7.87;;
14470;SDS011;7321;50.802;4.336;2022-12-18T07:18:46;11.80;;;7.97;;
14470;SDS011;7321;50.802;4.336;2022-12-18T07:21:13;10.20;;;8.10;;
14470;SDS011;7321;50.802;4.336;2022-12-18T07:23:41;12.67;;;8.37;;
14470;SDS011;7321;50.802;4.336;2022-12-18T07:26:09;12.17;;;8.83;;
14470;SDS011;7321;50.802;4.336;2022-12-18T07:28:37;11.77;;;8.80;;
14470;SDS011;7321;50.802;4.336;2022-12-18T07:31:05;11.47;;;8.37;;
14470;SDS011;7321;50.802;4.336;2022-12-18T07:33:33;12.33;;;7.83;;
14470;SDS011;7321;50.802;4.336;2022-12-18T07:36:03;12.93;;;8.63;;
14470;SDS011;7321;50.802;4.336;2022-12-18T07:38:30;12.40;;;8.03;;
14470;SDS011;7321;50.802;4.336;2022-12-18T07:41:00;12.50;;;9.17;;
14470;SDS011;7321;50.802;4.336;2022-12-18T07:43:28;13.43;;;8.90;;
14470;SDS011;7321;50.802;4.336;2022-12-18T07:45:53;12.77;;;8.93;;
14470;SDS011;7321;50.802;4.336;2022-12-18T07:48:19;14.50;;;9.77;;
14470;SDS011;7321;50.802;4.336;2022-12-18T07:50:45;13.57;;;8.90;;
14470;SDS011;7321;50.802;4.336;2022-12-18T07:53:11;13.77;;;8.90;;
14470;SDS011;7321;50.802;4.336;2022-12-18T07:55:37;11.27;;;8.07;;
14470;SDS011;7321;50.802;4.336;2022-12-18T07:58:03;12.63;;;8.73;;
14470;SDS011;7321;50.802;4.336;2022-12-18T08:00:30;12.07;;;8.70;;
14470;SDS011;7321;50.802;4.336;2022-12-18T08:02:56;10.67;;;7.97;;
14470;SDS011;7321;50.802;4.336;2022-12-18T08:05:22;13.33;;;8.73;;
14470;SDS011;7321;50.802;4.336;2022-12-18T08:07:48;12.20;;;8.10;;
14470;SDS011;7321;50.802;4.336;2022-12-18T08:10:16;11.73;;;8.27;;
14470;SDS011;7321;50.802;4.336;2022-12-18T08:12:43;12.03;;;8.43;;
14470;SDS011;7321;50.802;4.336;2022-12-18T08:15:09;15.27;;;9.33;;
14470;SDS011;7321;50.802;4.336;2022-12-18T08:17:35;15.73;;;9.97;;
14470;SDS011;7321;50.802;4.336;2022-12-18T08:20:01;12.70;;;9.37;;
14470;SDS011;7321;50.802;4.336;2022-12-18T08:22:27;12.80;;;8.83;;
14470;SDS011;7321;50.802;4.336;2022-12-18T08:24:53;11.70;;;8.97;;
14470;SDS011;7321;50.802;4.336;2022-12-18T08:27:19;14.90;;;9.77;;
14470;SDS011;7321;50.802;4.336;2022-12-18T08:29:45;14.07;;;9.10;;
14470;SDS011;7321;50.802;4.336;2022-12-18T08:32:13;12.43;;;9.20;;
14470;SDS011;7321;50.802;4.336;2022-12-18T08:34:42;12.77;;;9.43;;
14470;SDS011;7321;50.802;4.336;2022-12-18T08:37:07;12.43;;;9.10;;
14470;SDS011;7321;50.802;4.336;2022-12-18T08:39:33;14.13;;;9.57;;
14470;SDS011;7321;50.802;4.336;2022-12-18T08:41:59;11.40;;;8.87;;
14470;SDS011;7321;50.802;4.336;2022-12-18T08:44:45;12.50;;;8.90;;
14470;SDS011;7321;50.802;4.336;2022-12-18T08:47:11;13.53;;;9.27;;
14470;SDS011;7321;50.802;4.336;2022-12-18T08:49:37;13.00;;;9.53;;
14470;SDS011;7321;50.802;4.336;2022-12-18T08:52:03;12.30;;;9.03;;
14470;SDS011;7321;50.802;4.336;2022-12-18T08:54:28;13.60;;;9.47;;
14470;SDS011;7321;50.802;4.336;2022-12-18T08:56:55;12.43;;;9.90;;
14470;SDS011;7321;50.802;4.336;2022-12-18T08:59:21;14.43;;;10.30;;
14470;SDS011;7321;50.802;4.336;2022-12-18T09:01:52;14.47;;;10.13;;
14470;SDS011;7321;50.802;4.336;2022-12-18T09:04:33;16.57;;;11.70;;
14470;SDS011;7321;50.802;4.336;2022-12-18T09:06:59;15.37;;;11.43;;
14470;SDS011;7321;50.802;4.336;2022-12-18T09:09:25;14.33;;;10.57;;
14470;SDS011;7321;50.802;4.336;2022-12-18T09:11:52;13.52;;;10.98;;
14470;SDS011;7321;50.802;4.336;2022-12-18T09:14:17;15.97;;;10.00;;
14470;SDS011;7321;50.802;4.336;2022-12-18T09:16:43;13.07;;;10.33;;
14470;SDS011;7321;50.802;4.336;2022-12-18T09:19:09;15.97;;;10.13;;
14470;SDS011;7321;50.802;4.336;2022-12-18T09:21:35;14.80;;;10.83;;
14470;SDS011;7321;50.802;4.336;2022-12-18T09:24:01;16.57;;;11.13;;
14470;SDS011;7321;50.802;4.336;2022-12-18T09:26:31;13.30;;;10.20;;
14470;SDS011;7321;50.802;4.336;2022-12-18T09:28:57;14.23;;;10.50;;
14470;SDS011;7321;50.802;4.336;2022-12-18T09:31:26;15.40;;;11.13;;
14470;SDS011;7321;50.802;4.336;2022-12-18T09:34:04;17.13;;;12.50;;
14470;SDS011;7321;50.802;4.336;2022-12-18T09:36:31;15.87;;;11.90;;
14470;SDS011;7321;50.802;4.336;2022-12-18T09:38:57;17.07;;;12.30;;
14470;SDS011;7321;50.802;4.336;2022-12-18T09:44:11;15.03;;;11.63;;
14470;SDS011;7321;50.802;4.336;2022-12-18T09:46:44;16.53;;;11.67;;
14470;SDS011;7321;50.802;4.336;2022-12-18T09:49:17;16.37;;;11.77;;
14470;SDS011;7321;50.802;4.336;2022-12-18T09:51:51;15.57;;;11.83;;
14470;SDS011;7321;50.802;4.336;2022-12-18T09:54:26;18.63;;;12.17;;
14470;SDS011;7321;50.802;4.336;2022-12-18T09:57:04;17.17;;;12.63;;
14470;SDS011;7321;50.802;4.336;2022-12-18T09:59:32;18.20;;;12.70;;
14470;SDS011;7321;50.802;4.336;2022-12-18T10:04:41;16.50;;;12.10;;
14470;SDS011;7321;50.802;4.336;2022-12-18T10:07:16;17.53;;;13.33;;
14470;SDS011;7321;50.802;4.336;2022-12-18T10:09:58;21.23;;;13.13;;
14470;SDS011;7321;50.802;4.336;2022-12-18T10:12:45;19.10;;;12.30;;
14470;SDS011;7321;50.802;4.336;2022-12-18T10:15:49;16.60;;;12.70;;
14470;SDS011;7321;50.802;4.336;2022-12-18T10:21:20;19.67;;;13.37;;
14470;SDS011;7321;50.802;4.336;2022-12-18T10:24:01;17.33;;;12.63;;
14470;SDS011;7321;50.802;4.336;2022-12-18T10:27:16;18.87;;;12.43;;
14470;SDS011;7321;50.802;4.336;2022-12-18T10:29:43;20.77;;;13.30;;
14470;SDS011;7321;50.802;4.336;2022-12-18T10:32:14;14.87;;;11.90;;
14470;SDS011;7321;50.802;4.336;2022-12-18T10:34:49;17.80;;;12.03;;
14470;SDS011;7321;50.802;4.336;2022-12-18T10:37:18;20.10;;;13.10;;
14470;SDS011;7321;50.802;4.336;2022-12-18T10:42:40;18.17;;;12.43;;
14470;SDS011;7321;50.802;4.336;2022-12-18T10:45:11;19.43;;;12.70;;
14470;SDS011;7321;50.802;4.336;2022-12-18T10:47:43;16.57;;;11.67;;
14470;SDS011;7321;50.802;4.336;2022-12-18T10:52:53;18.90;;;13.27;;
14470;SDS011;7321;50.802;4.336;2022-12-18T10:55:38;17.37;;;12.63;;
14470;SDS011;7321;50.802;4.336;2022-12-18T10:58:28;20.10;;;12.87;;
14470;SDS011;7321;50.802;4.336;2022-12-18T11:01:11;19.80;;;13.77;;
14470;SDS011;7321;50.802;4.336;2022-12-18T11:03:39;18.67;;;13.70;;
14470;SDS011;7321;50.802;4.336;2022-12-18T11:06:23;19.17;;;13.47;;
14470;SDS011;7321;50.802;4.336;2022-12-18T11:09:06;19.80;;;13.10;;
14470;SDS011;7321;50.802;4.336;2022-12-18T11:14:29;19.57;;;12.97;;
14470;SDS011;7321;50.802;4.336;2022-12-18T11:17:30;21.23;;;13.03;;
14470;SDS011;7321;50.802;4.336;2022-12-18T11:20:04;18.43;;;13.83;;
14470;SDS011;7321;50.802;4.336;2022-12-18T11:22:45;17.87;;;12.63;;
14470;SDS011;7321;50.802;4.336;2022-12-18T11:25:26;17.63;;;13.10;;
14470;SDS011;7321;50.802;4.336;2022-12-18T11:27:58;18.70;;;12.43;;
14470;SDS011;7321;50.802;4.336;2022-12-18T11:30:36;18.43;;;13.40;;
14470;SDS011;7321;50.802;4.336;2022-12-18T11:33:09;18.03;;;13.10;;
14470;SDS011;7321;50.802;4.336;2022-12-18T11:40:55;19.10;;;13.83;;
14470;SDS011;7321;50.802;4.336;2022-12-18T11:43:40;17.20;;;13.60;;
14470;SDS011;7321;50.802;4.336;2022-12-18T11:46:27;20.00;;;13.77;;
14470;SDS011;7321;50.802;4.336;2022-12-18T11:49:21;21.20;;;13.80;;
14470;SDS011;7321;50.802;4.336;2022-12-18T11:51:51;19.90;;;14.27;;
14470;SDS011;7321;50.802;4.336;2022-12-18T11:54:30;25.57;;;15.17;;
14470;SDS011;7321;50.802;4.336;2022-12-18T12:00:23;19.07;;;13.50;;
14470;SDS011;7321;50.802;4.336;2022-12-18T12:02:56;19.60;;;13.70;;
14470;SDS011;7321;50.802;4.336;2022-12-18T12:11:20;19.47;;;13.23;;
14470;SDS011;7321;50.802;4.336;2022-12-18T12:16:39;19.53;;;12.90;;
14470;SDS011;7321;50.802;4.336;2022-12-18T12:22:06;19.90;;;13.57;;
14470;SDS011;7321;50.802;4.336;2022-12-18T12:30:46;22.33;;;14.50;;
14470;SDS011;7321;50.802;4.336;2022-12-18T12:39:10;19.60;;;13.47;;
14470;SDS011;7321;50.802;4.336;2022-12-18T12:41:41;19.47;;;14.47;;
14470;SDS011;7321;50.802;4.336;2022-12-18T12:44:30;23.23;;;14.57;;
14470;SDS011;7321;50.802;4.336;2022-12-18T12:47:11;23.00;;;14.83;;
14470;SDS011;7321;50.802;4.336;2022-12-18T12:49:43;25.33;;;17.03;;
14470;SDS011;7321;50.802;4.336;2022-12-18T12:52:24;21.40;;;14.87;;
14470;SDS011;7321;50.802;4.336;2022-12-18T12:54:54;24.73;;;15.97;;
14470;SDS011;7321;50.802;4.336;2022-12-18T12:57:23;22.87;;;15.17;;
14470;SDS011;7321;50.802;4.336;2022-12-18T13:00:25;24.13;;;15.20;;
14470;SDS011;7321;50.802;4.336;2022-12-18T13:03:44;27.07;;;16.07;;
14470;SDS011;7321;50.802;4.336;2022-12-18T13:06:05;23.30;;;14.70;;
14470;SDS011;7321;50.802;4.336;2022-12-18T13:08:57;27.37;;;17.43;;
14470;SDS011;7321;50.802;4.336;2022-12-18T13:11:29;26.90;;;16.77;;
14470;SDS011;7321;50.802;4.336;2022-12-18T13:14:31;21.87;;;16.03;;
14470;SDS011;7321;50.802;4.336;2022-12-18T13:19:49;22.60;;;15.23;;
14470;SDS011;7321;50.802;4.336;2022-12-18T13:22:28;26.30;;;17.20;;
14470;SDS011;7321;50.802;4.336;2022-12-18T13:25:00;27.17;;;17.77;;
14470;SDS011;7321;50.802;4.336;2022-12-18T13:43:46;28.33;;;17.50;;
14470;SDS011;7321;50.802;4.336;2022-12-18T13:51:44;32.07;;;20.23;;
14470;SDS011;7321;50.802;4.336;2022-12-18T13:57:05;29.13;;;19.00;;
14470;SDS011;7321;50.802;4.336;2022-12-18T13:59:50;26.93;;;18.47;;
14470;SDS011;7321;50.802;4.336;2022-12-18T14:02:17;30.20;;;19.70;;
14470;SDS011;7321;50.802;4.336;2022-12-18T14:04:51;31.67;;;19.70;;
14470;SDS011;7321;50.802;4.336;2022-12-18T14:07:22;35.90;;;21.37;;
14470;SDS011;7321;50.802;4.336;2022-12-18T14:09:51;31.97;;;20.33;;
14470;SDS011;7321;50.802;4.336;2022-12-18T14:12:25;32.20;;;19.63;;
14470;SDS011;7321;50.802;4.336;2022-12-18T14:17:40;30.40;;;20.40;;
14470;SDS011;7321;50.802;4.336;2022-12-18T14:20:12;33.23;;;21.43;;
14470;SDS011;7321;50.802;4.336;2022-12-18T14:22:39;30.60;;;19.97;;
14470;SDS011;7321;50.802;4.336;2022-12-18T14:27:42;32.10;;;20.30;;
14470;SDS011;7321;50.802;4.336;2022-12-18T14:33:01;32.73;;;20.70;;
14470;SDS011;7321;50.802;4.336;2022-12-18T14:35:27;31.30;;;19.40;;
14470;SDS011;7321;50.802;4.336;2022-12-18T14:37:53;33.07;;;20.73;;
14470;SDS011;7321;50.802;4.336;2022-12-18T14:40:19;29.27;;;19.73;;
14470;SDS011;7321;50.802;4.336;2022-12-18T14:42:45;30.13;;;20.73;;
14470;SDS011;7321;50.802;4.336;2022-12-18T14:47:59;32.20;;;20.23;;
14470;SDS011;7321;50.802;4.336;2022-12-18T14:50:26;35.03;;;22.17;;
14470;SDS011;7321;50.802;4.336;2022-12-18T14:52:52;39.47;;;20.07;;
14470;SDS011;7321;50.802;4.336;2022-12-18T14:55:18;30.77;;;20.23;;
14470;SDS011;7321;50.802;4.336;2022-12-18T14:57:48;31.60;;;19.77;;
14470;SDS011;7321;50.802;4.336;2022-12-18T15:00:19;33.17;;;20.93;;
14470;SDS011;7321;50.802;4.336;2022-12-18T15:02:48;35.27;;;21.23;;
14470;SDS011;7321;50.802;4.336;2022-12-18T15:05:20;30.37;;;20.27;;
14470;SDS011;7321;50.802;4.336;2022-12-18T15:07:52;35.10;;;22.00;;
14470;SDS011;7321;50.802;4.336;2022-12-18T15:10:22;31.13;;;20.13;;
14470;SDS011;7321;50.802;4.336;2022-12-18T15:18:03;37.53;;;19.93;;
14470;SDS011;7321;50.802;4.336;2022-12-18T15:20:33;33.23;;;19.57;;
14470;SDS011;7321;50.802;4.336;2022-12-18T15:26:01;34.07;;;20.93;;
14470;SDS011;7321;50.802;4.336;2022-12-18T15:28:30;30.43;;;19.50;;
14470;SDS011;7321;50.802;4.336;2022-12-18T15:31:01;32.53;;;20.40;;
14470;SDS011;7321;50.802;4.336;2022-12-18T15:36:19;31.90;;;19.73;;
14470;SDS011;7321;50.802;4.336;2022-12-18T15:38:48;31.93;;;21.00;;
14470;SDS011;7321;50.802;4.336;2022-12-18T15:41:16;33.40;;;19.93;;
14470;SDS011;7321;50.802;4.336;2022-12-18T15:43:46;44.27;;;25.70;;
14470;SDS011;7321;50.802;4.336;2022-12-18T15:46:15;45.70;;;26.23;;
14470;SDS011;7321;50.802;4.336;2022-12-18T15:48:51;39.90;;;24.37;;
14470;SDS011;7321;50.802;4.336;2022-12-18T15:51:21;36.43;;;21.50;;
14470;SDS011;7321;50.802;4.336;2022-12-18T15:53:54;35.93;;;22.03;;
14470;SDS011;7321;50.802;4.336;2022-12-18T15:56:22;35.07;;;21.73;;
14470;SDS011;7321;50.802;4.336;2022-12-18T15:59:11;37.60;;;22.40;;
14470;SDS011;7321;50.802;4.336;2022-12-18T16:01:45;34.77;;;20.27;;
14470;SDS011;7321;50.802;4.336;2022-12-18T16:04:13;34.67;;;21.97;;
14470;SDS011;7321;50.802;4.336;2022-12-18T16:06:43;32.40;;;20.97;;
14470;SDS011;7321;50.802;4.336;2022-12-18T16:09:09;36.40;;;22.03;;
14470;SDS011;7321;50.802;4.336;2022-12-18T16:11:35;35.77;;;21.87;;
14470;SDS011;7321;50.802;4.336;2022-12-18T16:16:42;29.50;;;18.77;;
14470;SDS011;7321;50.802;4.336;2022-12-18T16:19:08;35.73;;;21.00;;
14470;SDS011;7321;50.802;4.336;2022-12-18T16:21:37;33.83;;;21.10;;
14470;SDS011;7321;50.802;4.336;2022-12-18T16:24:03;31.10;;;19.80;;
14470;SDS011;7321;50.802;4.336;2022-12-18T16:26:29;28.87;;;17.60;;
14470;SDS011;7321;50.802;4.336;2022-12-18T16:28:55;32.97;;;19.17;;
14470;SDS011;7321;50.802;4.336;2022-12-18T16:31:21;33.60;;;20.27;;
14470;SDS011;7321;50.802;4.336;2022-12-18T16:33:47;31.03;;;18.77;;
14470;SDS011;7321;50.802;4.336;2022-12-18T16:36:15;34.63;;;20.83;;
14470;SDS011;7321;50.802;4.336;2022-12-18T16:38:41;30.97;;;19.07;;
14470;SDS011;7321;50.802;4.336;2022-12-18T16:41:19;33.80;;;20.13;;
14470;SDS011;7321;50.802;4.336;2022-12-18T16:43:57;33.07;;;19.43;;
14470;SDS011;7321;50.802;4.336;2022-12-18T16:46:24;38.47;;;23.23;;
14470;SDS011;7321;50.802;4.336;2022-12-18T16:48:50;30.77;;;19.57;;
14470;SDS011;7321;50.802;4.336;2022-12-18T16:51:16;33.43;;;20.13;;
14470;SDS011;7321;50.802;4.336;2022-12-18T16:53:42;34.53;;;21.20;;
14470;SDS011;7321;50.802;4.336;2022-12-18T16:56:17;32.93;;;20.37;;
14470;SDS011;7321;50.802;4.336;2022-12-18T16:58:43;35.17;;;22.10;;
14470;SDS011;7321;50.802;4.336;2022-12-18T17:01:14;28.77;;;18.17;;
14470;SDS011;7321;50.802;4.336;2022-12-18T17:03:40;31.40;;;19.33;;
14470;SDS011;7321;50.802;4.336;2022-12-18T17:06:06;29.30;;;18.53;;